Time;durP1;ratioP1;P1;durP2;ratioP2;P2;SDS_P1;SDS_P2;PMS_P1;PMS_P2;Temp;Humidity;BMP_temperature;BMP_pressure;BME280_temperature;BME280_humidity;BME280_pressure;Samples;Min_cycle;Max_cycle;Signal;HPM_P1;HPM_P2
2024/01/17 00:02:52;;;;;;;24.43;9.93;;;;;-6.80;95024.00;;;;8337856;28;20677;-73
2024/01/17 00:06:57;;;;;;;28.63;10.57;;;;;-6.80;95011.00;;;;8337085;28;20192;-73
2024/01/17 00:11:02;;;;;;;29.13;10.20;;;;;-6.70;95001.00;;;;8337114;28;20200;-74
2024/01/17 00:15:07;;;;;;;21.10;10.67;;;;;-6.70;95000.00;;;;8337496;28;20220;-73
2024/01/17 00:19:10;;;;;;;25.00;10.17;;;;;-6.60;95004.00;;;;8337264;28;20246;-74
2024/01/17 00:23:14;;;;;;;31.33;10.63;;;;;-6.50;95007.00;;;;8337463;28;20287;-73
2024/01/17 00:27:18;;;;;;;27.10;10.30;;;;;-6.60;94999.00;;;;8336990;28;20580;-74
2024/01/17 00:31:22;;;;;;;24.73;10.20;;;;;-6.70;95008.00;;;;8336840;28;20199;-74
2024/01/17 00:35:25;;;;;;;35.73;11.17;;;;;-6.80;95001.00;;;;8336354;28;20227;-75
2024/01/17 00:39:28;;;;;;;28.27;10.20;;;;;-6.90;95005.00;;;;8336626;28;20205;-74
2024/01/17 00:43:33;;;;;;;22.77;11.17;;;;;-7.00;94993.00;;;;8336130;28;20285;-74
2024/01/17 00:47:36;;;;;;;26.20;10.67;;;;;-7.10;94989.00;;;;8335942;28;20219;-75
2024/01/17 00:51:40;;;;;;;24.93;9.70;;;;;-7.20;94985.00;;;;8336323;28;20196;-75
2024/01/17 00:55:43;;;;;;;30.20;10.30;;;;;-7.20;94976.00;;;;8334619;28;20335;-75
2024/01/17 00:59:47;;;;;;;23.27;9.30;;;;;-7.20;94960.00;;;;8336517;28;20208;-75
2024/01/17 01:03:51;;;;;;;26.47;10.23;;;;;-7.20;94948.00;;;;8336880;28;20366;-75
2024/01/17 01:07:54;;;;;;;28.37;10.30;;;;;-7.30;94938.00;;;;8335644;28;20253;-75
2024/01/17 01:11:57;;;;;;;21.50;10.27;;;;;-7.30;94956.00;;;;8335325;28;20622;-75
2024/01/17 01:16:03;;;;;;;28.23;10.60;;;;;-7.30;94952.00;;;;8335651;28;20254;-75
2024/01/17 01:20:08;;;;;;;25.17;9.77;;;;;-7.40;94938.00;;;;8335270;28;20188;-76
2024/01/17 01:24:13;;;;;;;29.93;11.27;;;;;-7.50;94933.00;;;;8335859;28;20272;-75
2024/01/17 01:28:16;;;;;;;27.20;10.53;;;;;-7.40;94946.00;;;;8335718;28;20236;-75
2024/01/17 01:32:20;;;;;;;28.40;11.17;;;;;-7.40;94951.00;;;;8334698;28;20195;-76
2024/01/17 01:36:23;;;;;;;29.17;11.07;;;;;-7.40;94965.00;;;;8335162;28;20255;-76
2024/01/17 01:40:27;;;;;;;23.43;10.60;;;;;-7.30;94957.00;;;;8334778;28;20231;-75
2024/01/17 01:44:30;;;;;;;30.13;10.53;;;;;-7.30;94954.00;;;;8334445;28;20202;-76
2024/01/17 01:48:35;;;;;;;28.37;11.33;;;;;-7.40;94932.00;;;;8334072;28;20309;-74
2024/01/17 01:52:43;;;;;;;26.10;10.93;;;;;-7.50;94938.00;;;;8335828;28;20645;-71
2024/01/17 01:56:47;;;;;;;24.00;9.30;;;;;-7.50;94940.00;;;;8334362;28;20303;-76
2024/01/17 02:00:53;;;;;;;20.57;10.10;;;;;-7.50;94937.00;;;;8333366;28;20275;-76
2024/01/17 02:04:58;;;;;;;19.67;9.87;;;;;-7.50;94937.00;;;;8335220;28;20222;-75
2024/01/17 02:09:02;;;;;;;24.70;10.20;;;;;-7.50;94931.00;;;;8334249;28;20578;-76
2024/01/17 02:13:06;;;;;;;26.07;10.23;;;;;-7.50;94918.00;;;;8333390;28;20633;-76
2024/01/17 02:17:09;;;;;;;25.83;10.13;;;;;-7.50;94915.00;;;;8334046;28;20263;-75
2024/01/17 02:21:14;;;;;;;24.97;10.43;;;;;-7.40;94912.00;;;;8332692;28;20217;-75
2024/01/17 02:25:19;;;;;;;26.47;11.43;;;;;-7.30;94898.00;;;;8332470;28;20228;-75
2024/01/17 02:29:22;;;;;;;24.20;10.63;;;;;-7.20;94906.00;;;;8333675;28;20290;-75
2024/01/17 02:33:25;;;;;;;25.67;10.57;;;;;-7.10;94902.00;;;;8332888;28;20188;-75
2024/01/17 02:37:30;;;;;;;25.70;11.00;;;;;-6.80;94900.00;;;;8333980;28;20224;-73
2024/01/17 02:41:35;;;;;;;32.43;12.03;;;;;-6.60;94888.00;;;;8332282;28;20200;-75
2024/01/17 02:45:38;;;;;;;30.53;11.20;;;;;-6.30;94884.00;;;;8332692;28;20220;-75
2024/01/17 02:49:41;;;;;;;32.10;12.33;;;;;-6.10;94871.00;;;;8333169;28;20199;-75
2024/01/17 02:53:44;;;;;;;33.83;13.37;;;;;-5.80;94890.00;;;;8332184;28;20235;-75
2024/01/17 02:57:49;;;;;;;26.97;11.87;;;;;-5.50;94888.00;;;;8332041;28;20217;-75
2024/01/17 03:01:53;;;;;;;26.27;10.33;;;;;-5.50;94885.00;;;;8370019;22;20360;-71
2024/01/17 03:05:57;;;;;;;27.60;10.57;;;;;-5.60;94877.00;;;;8251010;28;20209;-72
2024/01/17 03:10:00;;;;;;;30.83;10.83;;;;;-5.70;94861.00;;;;8259597;28;20318;-72
2024/01/17 03:14:05;;;;;;;24.50;10.53;;;;;-5.70;94851.00;;;;8256449;28;20213;-72
2024/01/17 03:18:13;;;;;;;32.63;11.87;;;;;-5.70;94839.00;;;;8257047;28;20829;-70
2024/01/17 03:22:17;;;;;;;28.97;12.13;;;;;-5.60;94832.00;;;;8256904;28;20217;-69
2024/01/17 03:26:20;;;;;;;29.43;11.53;;;;;-5.40;94832.00;;;;8254248;28;20213;-72
2024/01/17 03:30:24;;;;;;;29.97;12.07;;;;;-5.10;94830.00;;;;8260029;28;20206;-72
2024/01/17 03:34:28;;;;;;;24.23;11.83;;;;;-4.80;94812.00;;;;8260618;28;20337;-73
2024/01/17 03:38:31;;;;;;;26.63;11.63;;;;;-4.50;94797.00;;;;8260076;28;20264;-72
2024/01/17 03:42:34;;;;;;;28.53;11.93;;;;;-4.20;94794.00;;;;8255312;28;20261;-72
2024/01/17 03:46:38;;;;;;;22.63;11.30;;;;;-4.00;94784.00;;;;8255808;28;20801;-72
2024/01/17 03:50:41;;;;;;;33.27;11.40;;;;;-3.90;94769.00;;;;8258430;28;20198;-68
2024/01/17 03:54:44;;;;;;;25.77;11.07;;;;;-3.80;94765.00;;;;8254333;28;20258;-72
2024/01/17 03:58:48;;;;;;;26.10;11.67;;;;;-3.80;94763.00;;;;8250948;28;20227;-68
2024/01/17 04:02:52;;;;;;;27.93;11.83;;;;;-3.60;94769.00;;;;8250782;28;20236;-71
2024/01/17 04:06:55;;;;;;;26.07;11.13;;;;;-3.50;94762.00;;;;8241247;28;20206;-73
2024/01/17 04:10:59;;;;;;;26.23;12.60;;;;;-3.40;94743.00;;;;8237320;28;20239;-71
2024/01/17 04:15:02;;;;;;;25.37;11.10;;;;;-3.30;94755.00;;;;8234450;28;20207;-71
2024/01/17 04:19:06;;;;;;;26.57;11.50;;;;;-3.20;94741.00;;;;8239396;28;20793;-72
2024/01/17 04:23:10;;;;;;;23.53;11.17;;;;;-3.10;94740.00;;;;8242779;28;20258;-72
2024/01/17 04:27:13;;;;;;;23.23;10.77;;;;;-3.10;94737.00;;;;8243103;28;22096;-70
2024/01/17 04:31:24;;;;;;;23.60;10.63;;;;;-3.00;94719.00;;;;8228756;28;20264;-70
2024/01/17 04:35:28;;;;;;;26.67;10.27;;;;;-2.90;94698.00;;;;8224291;28;20206;-69
2024/01/17 04:39:32;;;;;;;28.00;12.00;;;;;-2.90;94714.00;;;;8221746;28;20231;-73
2024/01/17 04:43:35;;;;;;;27.53;11.50;;;;;-2.90;94711.00;;;;8227809;28;20203;-72
2024/01/17 04:47:38;;;;;;;22.63;10.73;;;;;-2.80;94714.00;;;;8224158;28;20230;-71
2024/01/17 04:51:43;;;;;;;25.03;11.67;;;;;-2.70;94702.00;;;;8229675;28;20246;-70
2024/01/17 04:55:46;;;;;;;24.27;11.63;;;;;-2.70;94690.00;;;;8224129;28;20235;-70
2024/01/17 04:59:49;;;;;;;22.83;10.73;;;;;-2.60;94689.00;;;;8226501;28;20221;-71
2024/01/17 05:03:53;;;;;;;20.33;11.07;;;;;-2.50;94681.00;;;;8229996;28;20358;-74
2024/01/17 05:07:57;;;;;;;22.57;11.63;;;;;-2.50;94666.00;;;;8223555;28;20206;-73
2024/01/17 05:12:01;;;;;;;23.67;11.07;;;;;-2.40;94650.00;;;;8210139;28;20215;-72
2024/01/17 05:16:04;;;;;;;26.50;12.10;;;;;-2.40;94648.00;;;;8219580;28;20206;-73
2024/01/17 05:20:09;;;;;;;20.10;11.03;;;;;-2.30;94658.00;;;;8235216;28;20254;-71
2024/01/17 05:24:14;;;;;;;21.87;11.43;;;;;-2.30;94657.00;;;;8228445;28;20218;-71
2024/01/17 05:28:17;;;;;;;25.00;10.67;;;;;-2.30;94661.00;;;;8221680;28;20222;-75
2024/01/17 05:32:20;;;;;;;23.53;10.60;;;;;-2.20;94655.00;;;;8227481;28;20238;-71
2024/01/17 05:36:23;;;;;;;26.87;12.00;;;;;-2.20;94652.00;;;;8232514;28;20235;-76
2024/01/17 05:40:28;;;;;;;20.47;9.90;;;;;-2.20;94651.00;;;;8225070;28;20209;-77
2024/01/17 05:44:31;;;;;;;26.40;12.93;;;;;-2.20;94642.00;;;;8231643;28;20611;-76
2024/01/17 05:48:34;;;;;;;25.87;12.17;;;;;-2.20;94642.00;;;;8227954;28;20215;-73
2024/01/17 05:52:39;;;;;;;34.13;12.73;;;;;-2.10;94625.00;;;;8223232;28;20775;-75
2024/01/17 05:56:44;;;;;;;23.40;12.00;;;;;-2.10;94622.00;;;;8230537;28;20230;-73
2024/01/17 06:00:47;;;;;;;19.60;10.77;;;;;-2.10;94629.00;;;;8227797;28;20207;-74
2024/01/17 06:04:50;;;;;;;26.83;11.07;;;;;-2.10;94620.00;;;;8224433;28;20234;-73
2024/01/17 06:08:54;;;;;;;23.80;11.77;;;;;-2.00;94618.00;;;;8230462;28;20210;-78
2024/01/17 06:12:58;;;;;;;23.03;11.93;;;;;-2.00;94615.00;;;;8229409;28;20242;-74
2024/01/17 06:17:01;;;;;;;19.20;9.90;;;;;-2.00;94613.00;;;;8227818;28;20246;-74
2024/01/17 06:21:05;;;;;;;25.33;11.50;;;;;-2.00;94600.00;;;;8229844;28;20213;-75
2024/01/17 06:25:09;;;;;;;19.20;10.07;;;;;-1.90;94589.00;;;;8229863;28;20202;-74
2024/01/17 06:29:13;;;;;;;409.17;213.43;;;;;-2.00;94582.00;;;;8231412;28;20211;-74
2024/01/17 06:33:17;;;;;;;46.40;21.47;;;;;-1.90;94559.00;;;;8229419;28;20209;-77
2024/01/17 06:37:21;;;;;;;276.43;80.97;;;;;-1.80;94558.00;;;;8231173;28;20226;-73
2024/01/17 06:41:24;;;;;;;162.03;48.13;;;;;-1.80;94560.00;;;;8223317;28;20723;-77
2024/01/17 06:45:28;;;;;;;278.57;93.23;;;;;-1.80;94545.00;;;;8223099;28;20978;-72
2024/01/17 06:49:31;;;;;;;960.07;346.50;;;;;-1.70;94547.00;;;;8202424;28;20211;-73
2024/01/17 06:53:35;;;;;;;679.53;229.90;;;;;-1.70;94544.00;;;;8218622;28;20203;-74
2024/01/17 06:57:38;;;;;;;74.30;31.47;;;;;-1.70;94542.00;;;;8227750;28;20318;-70
2024/01/17 07:01:43;;;;;;;375.13;119.60;;;;;-1.70;94552.00;;;;8222036;28;20246;-74
2024/01/17 07:05:46;;;;;;;486.57;153.20;;;;;-1.70;94541.00;;;;8224318;28;20908;-72
2024/01/17 07:09:49;;;;;;;242.50;74.30;;;;;-1.70;94539.00;;;;8221516;28;20218;-74
2024/01/17 07:13:52;;;;;;;420.63;142.73;;;;;-1.70;94533.00;;;;8219392;28;20736;-78
2024/01/17 07:17:58;;;;;;;40.37;18.83;;;;;-1.70;94522.00;;;;8223096;28;20234;-73
2024/01/17 07:22:01;;;;;;;141.37;62.10;;;;;-1.70;94512.00;;;;8227704;28;20213;-74
2024/01/17 07:26:05;;;;;;;42.23;21.83;;;;;-1.70;94510.00;;;;8224224;28;21409;-73
2024/01/17 07:30:12;;;;;;;175.73;97.37;;;;;-1.60;94500.00;;;;8217523;28;20293;-72
2024/01/17 07:34:18;;;;;;;118.40;44.23;;;;;-1.60;94490.00;;;;8220721;28;20326;-72
2024/01/17 07:38:22;;;;;;;262.57;102.60;;;;;-1.50;94480.00;;;;8225012;28;20226;-71
2024/01/17 07:42:25;;;;;;;127.77;70.83;;;;;-1.50;94471.00;;;;8220667;28;20359;-71
2024/01/17 07:46:32;;;;;;;37.00;18.63;;;;;-1.40;94456.00;;;;8223691;28;20207;-71
2024/01/17 07:50:36;;;;;;;29.70;13.70;;;;;-1.30;94454.00;;;;8226875;28;20210;-74
2024/01/17 07:54:39;;;;;;;27.10;13.70;;;;;-1.20;94454.00;;;;8222799;28;20215;-73
2024/01/17 07:58:42;;;;;;;27.90;12.80;;;;;-1.10;94445.00;;;;8221881;28;20223;-72
2024/01/17 08:02:45;;;;;;;29.57;14.13;;;;;-1.10;94442.00;;;;8220906;28;20902;-74
2024/01/17 08:06:51;;;;;;;27.17;17.03;;;;;-1.00;94435.00;;;;8227001;28;20206;-73
2024/01/17 08:10:54;;;;;;;25.17;12.43;;;;;-0.90;94422.00;;;;8229187;28;20298;-72
2024/01/17 08:14:57;;;;;;;34.77;19.53;;;;;-0.90;94410.00;;;;8228661;28;20648;-74
2024/01/17 08:19:00;;;;;;;34.33;15.07;;;;;-0.80;94410.00;;;;8225552;28;20230;-72
2024/01/17 08:23:05;;;;;;;27.13;12.67;;;;;-0.70;94401.00;;;;8230482;28;20643;-72
2024/01/17 08:27:08;;;;;;;30.50;15.40;;;;;-0.60;94394.00;;;;8226095;28;20217;-71
2024/01/17 08:31:12;;;;;;;23.47;12.40;;;;;-0.60;94398.00;;;;8230018;28;20309;-72
2024/01/17 08:35:15;;;;;;;27.43;13.70;;;;;-0.50;94389.00;;;;8229038;28;20326;-70
2024/01/17 08:39:20;;;;;;;25.40;11.70;;;;;-0.40;94388.00;;;;8230765;28;20241;-71
2024/01/17 08:43:23;;;;;;;26.57;11.23;;;;;-0.20;94383.00;;;;8227475;28;20218;-70
2024/01/17 08:47:26;;;;;;;22.53;11.33;;;;;-0.20;94370.00;;;;8225918;28;20308;-71
2024/01/17 08:51:29;;;;;;;23.07;11.57;;;;;-0.20;94365.00;;;;8229681;28;20821;-71
2024/01/17 08:55:34;;;;;;;22.53;11.03;;;;;-0.20;94364.00;;;;8230988;28;20207;-70
2024/01/17 08:59:37;;;;;;;28.60;11.73;;;;;-0.10;94356.00;;;;8233814;28;20227;-71
2024/01/17 09:03:41;;;;;;;24.73;11.30;;;;;0.00;94352.00;;;;8223593;28;20258;-71
2024/01/17 09:07:45;;;;;;;21.97;11.30;;;;;0.10;94346.00;;;;8229219;28;20222;-70
2024/01/17 09:11:50;;;;;;;22.17;11.00;;;;;0.20;94345.00;;;;8229999;28;20208;-70
2024/01/17 09:15:53;;;;;;;18.87;10.90;;;;;0.30;94340.00;;;;8226936;28;21269;-70
2024/01/17 09:19:56;;;;;;;22.07;10.97;;;;;0.40;94344.00;;;;8225600;28;21207;-70
2024/01/17 09:23:59;;;;;;;19.10;11.27;;;;;0.60;94341.00;;;;8230841;28;20211;-70
2024/01/17 09:28:04;;;;;;;31.90;12.10;;;;;0.70;94344.00;;;;8229147;28;20228;-70
2024/01/17 09:32:08;;;;;;;29.80;11.90;;;;;0.90;94343.00;;;;8228190;28;20322;-69
2024/01/17 09:36:11;;;;;;;21.07;10.47;;;;;0.90;94333.00;;;;8229308;28;20253;-70
2024/01/17 09:40:14;;;;;;;20.97;10.47;;;;;1.10;94326.00;;;;8227625;28;20235;-67
2024/01/17 09:44:19;;;;;;;17.63;9.40;;;;;1.20;94318.00;;;;8228929;28;20206;-69
2024/01/17 09:48:25;;;;;;;20.93;10.93;;;;;1.20;94316.00;;;;8228817;28;20290;-68
2024/01/17 09:52:30;;;;;;;20.00;10.63;;;;;1.20;94312.00;;;;8226238;28;20199;-69
2024/01/17 17:53:49;;;;;;;42.80;17.23;;;;;2.10;93584.00;;;;8384940;22;20335;-71
2024/01/17 17:58:22;;;;;;;36.07;15.50;;;;;2.10;93600.00;;;;8353561;28;20207;-70
2024/01/17 18:02:27;;;;;;;43.87;18.20;;;;;2.10;93590.00;;;;8354091;28;20202;-71
2024/01/17 18:17:27;;;;;;;47.50;19.53;;;;;2.20;93581.00;;;;8321139;28;22484;-69
2024/01/17 18:26:43;;;;;;;44.03;19.83;;;;;2.20;93577.00;;;;8352524;28;20959;-69
2024/01/17 18:30:46;;;;;;;44.23;19.70;;;;;2.20;93575.00;;;;8357180;28;20204;-70
2024/01/17 18:34:51;;;;;;;52.80;21.23;;;;;2.20;93550.00;;;;8357652;28;20194;-70
2024/01/17 18:38:54;;;;;;;41.60;18.90;;;;;2.20;93546.00;;;;8351814;28;20225;-70
2024/01/17 18:42:57;;;;;;;47.90;20.37;;;;;2.30;93545.00;;;;8350439;28;20227;-69
2024/01/17 18:47:00;;;;;;;44.00;19.30;;;;;2.30;93549.00;;;;8352939;28;20814;-69
2024/01/17 18:51:06;;;;;;;44.80;19.47;;;;;2.30;93551.00;;;;8352936;28;20203;-70
2024/01/17 18:55:09;;;;;;;42.23;19.63;;;;;2.30;93545.00;;;;8329331;28;20272;-70
2024/01/17 18:59:13;;;;;;;48.77;21.47;;;;;2.30;93548.00;;;;8326008;28;21284;-70
2024/01/17 19:03:18;;;;;;;46.90;21.07;;;;;2.40;93553.00;;;;8315287;28;20207;-70
2024/01/17 19:07:22;;;;;;;52.87;21.00;;;;;2.40;93558.00;;;;8314577;28;20212;-70
2024/01/17 19:11:27;;;;;;;68.57;31.27;;;;;2.40;93549.00;;;;8319569;28;20208;-70
2024/01/17 19:15:31;;;;;;;557.83;305.67;;;;;2.50;93547.00;;;;8317194;28;20231;-70
2024/01/17 19:20:38;;;;;;;67.83;32.77;;;;;2.50;93551.00;;;;8378245;27;20598;-71
2024/01/17 19:24:41;;;;;;;73.63;34.33;;;;;2.50;93548.00;;;;8355069;28;21560;-73
2024/01/17 19:28:44;;;;;;;270.33;158.77;;;;;2.50;93550.00;;;;8356402;28;20207;-72
2024/01/17 19:32:48;;;;;;;74.60;32.73;;;;;2.50;93555.00;;;;8344636;28;20742;-73
2024/01/17 19:36:52;;;;;;;80.40;39.63;;;;;2.50;93561.00;;;;8345163;28;20213;-72
2024/01/17 19:40:55;;;;;;;229.60;112.10;;;;;2.50;93568.00;;;;8359875;28;20205;-71
2024/01/17 19:44:59;;;;;;;141.63;53.73;;;;;2.50;93562.00;;;;8359227;28;20949;-71
2024/01/17 19:49:02;;;;;;;69.83;28.87;;;;;2.50;93559.00;;;;8342207;28;20647;-70
2024/01/17 19:53:07;;;;;;;76.50;29.57;;;;;2.50;93561.00;;;;8336325;28;20226;-71
2024/01/17 19:57:10;;;;;;;75.97;27.63;;;;;2.50;93561.00;;;;8336090;28;20712;-71
2024/01/17 20:01:13;;;;;;;67.33;31.13;;;;;2.50;93566.00;;;;8336714;28;20906;-72
2024/01/17 20:05:16;;;;;;;64.47;26.87;;;;;2.50;93559.00;;;;8338182;28;20200;-72
2024/01/17 20:09:21;;;;;;;90.80;54.40;;;;;2.50;93558.00;;;;8336037;28;20342;-74
2024/01/17 20:13:24;;;;;;;114.57;33.97;;;;;2.50;93567.00;;;;8333352;28;20639;-72
2024/01/17 20:17:27;;;;;;;67.67;26.97;;;;;2.50;93560.00;;;;8333697;28;20621;-72
2024/01/17 20:21:33;;;;;;;65.50;24.83;;;;;2.50;93562.00;;;;8333921;28;20204;-72
2024/01/17 20:25:38;;;;;;;58.10;22.23;;;;;2.50;93556.00;;;;8338588;28;20273;-73
2024/01/17 20:29:41;;;;;;;60.17;23.43;;;;;2.60;93564.00;;;;8322482;28;20200;-73
2024/01/17 20:33:44;;;;;;;62.70;22.90;;;;;2.60;93552.00;;;;8314158;28;20290;-73
2024/01/17 20:37:49;;;;;;;59.67;23.40;;;;;2.60;93559.00;;;;8313546;28;20235;-72
2024/01/17 20:41:53;;;;;;;51.47;21.90;;;;;2.60;93549.00;;;;8311041;28;20992;-73
2024/01/17 20:45:56;;;;;;;59.30;23.47;;;;;2.70;93545.00;;;;8314191;28;20272;-72
2024/01/17 20:49:59;;;;;;;62.10;23.07;;;;;2.70;93538.00;;;;8314515;28;20325;-71
2024/01/17 20:54:03;;;;;;;59.43;23.73;;;;;2.70;93537.00;;;;8310283;28;20217;-74
2024/01/17 20:58:07;;;;;;;57.50;23.97;;;;;2.70;93532.00;;;;8312144;28;20351;-74
2024/01/17 21:02:10;;;;;;;64.97;24.27;;;;;2.70;93542.00;;;;8314064;28;20215;-71
2024/01/17 21:06:14;;;;;;;66.83;24.07;;;;;2.70;93553.00;;;;8316413;28;20992;-75
2024/01/17 21:10:17;;;;;;;52.27;21.47;;;;;2.80;93558.00;;;;8314271;28;20241;-75
2024/01/17 21:14:21;;;;;;;50.87;21.93;;;;;2.70;93547.00;;;;8311027;28;20832;-73
2024/01/17 21:18:25;;;;;;;58.57;23.70;;;;;2.70;93562.00;;;;8312441;28;20240;-72
2024/01/17 21:22:28;;;;;;;60.50;23.17;;;;;2.80;93559.00;;;;8310941;28;20196;-75
2024/01/17 21:26:34;;;;;;;58.80;23.50;;;;;2.80;93553.00;;;;8312915;28;20202;-74
2024/01/17 21:30:38;;;;;;;66.20;23.63;;;;;2.80;93562.00;;;;8314035;28;20290;-75
2024/01/17 21:34:42;;;;;;;63.07;24.83;;;;;2.80;93554.00;;;;8312718;28;20204;-72
2024/01/17 21:38:45;;;;;;;65.17;24.30;;;;;2.80;93550.00;;;;8314861;28;20607;-73
2024/01/17 21:42:48;;;;;;;64.93;24.47;;;;;2.80;93552.00;;;;8313135;28;20252;-72
2024/01/17 21:46:53;;;;;;;73.77;23.67;;;;;2.80;93546.00;;;;8312164;28;20200;-72
2024/01/17 21:50:56;;;;;;;66.60;23.67;;;;;2.80;93544.00;;;;8314222;28;20295;-73
2024/01/17 21:54:59;;;;;;;68.00;24.30;;;;;2.90;93538.00;;;;8313025;28;20215;-70
2024/01/17 21:59:03;;;;;;;61.40;23.33;;;;;2.80;93540.00;;;;8311898;28;20268;-71
2024/01/17 22:03:10;;;;;;;73.93;24.57;;;;;2.80;93534.00;;;;8311456;28;20254;-72
2024/01/17 22:07:13;;;;;;;62.73;22.67;;;;;2.80;93543.00;;;;8315345;28;20654;-71
2024/01/17 22:11:17;;;;;;;52.53;21.30;;;;;2.80;93531.00;;;;8311227;28;20231;-72
2024/01/17 22:15:20;;;;;;;58.63;21.47;;;;;2.80;93530.00;;;;8311427;28;20708;-73
2024/01/17 22:19:25;;;;;;;49.13;18.33;;;;;2.80;93529.00;;;;8313481;28;20908;-71
2024/01/17 22:23:29;;;;;;;51.80;19.40;;;;;2.90;93535.00;;;;8310206;28;20217;-72
2024/01/17 22:27:32;;;;;;;49.30;19.43;;;;;2.90;93524.00;;;;8311890;28;20603;-73
2024/01/17 22:31:35;;;;;;;51.63;18.93;;;;;3.00;93528.00;;;;8310323;28;21903;-72
2024/01/17 22:35:40;;;;;;;42.23;18.80;;;;;3.00;93537.00;;;;8312829;28;20233;-72
2024/01/17 22:39:43;;;;;;;37.77;15.80;;;;;3.00;93530.00;;;;8311787;28;20710;-71
2024/01/17 22:43:46;;;;;;;29.93;14.23;;;;;3.20;93534.00;;;;8311141;28;20204;-72
2024/01/17 22:47:49;;;;;;;26.57;13.17;;;;;3.30;93532.00;;;;8309637;28;20205;-72
2024/01/17 22:51:54;;;;;;;25.10;12.50;;;;;3.50;93525.00;;;;8308648;28;20208;-73
2024/01/17 22:55:57;;;;;;;17.00;9.27;;;;;3.70;93533.00;;;;8311923;28;20693;-73
2024/01/17 23:00:00;;;;;;;19.87;10.67;;;;;4.00;93533.00;;;;8310585;28;20225;-74
2024/01/17 23:04:04;;;;;;;16.13;9.70;;;;;4.20;93532.00;;;;8310187;28;20217;-74
2024/01/17 23:08:08;;;;;;;15.40;9.03;;;;;4.50;93535.00;;;;8312356;28;20820;-72
2024/01/17 23:12:13;;;;;;;13.67;7.90;;;;;4.80;93527.00;;;;8311709;28;20210;-69
2024/01/17 23:16:16;;;;;;;12.47;6.80;;;;;5.00;93527.00;;;;8313228;28;20288;-69
2024/01/17 23:20:20;;;;;;;12.80;7.10;;;;;5.20;93524.00;;;;8308084;28;20870;-69
2024/01/17 23:24:24;;;;;;;10.83;6.33;;;;;5.30;93518.00;;;;8308231;28;20204;-69
2024/01/17 23:28:27;;;;;;;12.47;7.00;;;;;5.50;93518.00;;;;8309381;28;20207;-69
2024/01/17 23:32:30;;;;;;;11.47;6.73;;;;;5.60;93534.00;;;;8310990;28;20663;-69
2024/01/17 23:36:34;;;;;;;10.80;6.93;;;;;5.70;93527.00;;;;8310568;28;20718;-70
2024/01/17 23:40:39;;;;;;;16.00;6.90;;;;;5.70;93534.00;;;;8313017;28;20659;-70
2024/01/17 23:44:42;;;;;;;12.63;7.10;;;;;5.70;93550.00;;;;8311681;28;21032;-70
2024/01/17 23:48:45;;;;;;;10.40;7.07;;;;;5.80;93551.00;;;;8308993;28;20209;-70
2024/01/17 23:52:48;;;;;;;11.57;7.10;;;;;6.00;93553.00;;;;8310364;28;20239;-70
2024/01/17 23:56:53;;;;;;;14.67;7.23;;;;;6.10;93553.00;;;;8312379;28;20225;-70
